ADDS METAR Data INFO
IDs: Format: Raw Decoded Include TAF

Data at: 0743 UTC 21 Jul 2018

PFCL 210656Z AUTO 13019G23KT 10SM OVC010 14/13 A3023 RMK AO2 PK WND 14027/0645 SLP231 T01440133 TSNO
PFCL 210556Z AUTO 13021G25KT 10SM OVC010 15/14 A3022 RMK AO2 PK WND 12026/0525 SLP226 60000 T01500139 10172 20150 58000 TSNO
PFCL 210518Z AUTO 13020G23KT 10SM BKN010 OVC060 15/14 A3022 RMK AO2 CIG 007V013 TSNO
PFCL 210456Z AUTO 13017G24KT 10SM OVC008 15/14 A3022 RMK AO2 PK WND 13026/0404 RAE36 SLP226 P0000 T01500139 TSNO
PFCL 210418Z AUTO 13017G25KT 10SM -RA OVC008 15/14 A3022 RMK AO2 PK WND 13026/0404 CIG 006V011 P0000 TSNO
PFCL 210356Z AUTO 13021G25KT 10SM -RA OVC010 15/14 A3022 RMK AO2 PK WND 13026/0319 RAB34 CIG 007V012 SLP226 P0000 T01500144 TSNO
PFCL 210244Z AUTO 13020G26KT 10SM BKN014 OVC060 16/14 A3022 RMK AO2 PK WND 13026/0238 TSNO
PFCL 210156Z AUTO 14016G23KT 10SM FEW014 OVC055 17/14 A3023 RMK AO2 SLP228 T01670139 TSNO
PFCL 210009Z AUTO 13020G24KT 10SM SCT014 BKN039 OVC060 17/14 A3022 RMK AO2 TSNO
PFCL 202356Z AUTO 12014G22KT 10SM BKN014 OVC060 17/15 A3023 RMK AO2 PK WND 13026/2335 SLP228 T01670150 10183 20139 58003 TSNO
PFCL 202327Z AUTO 12018G23KT 10SM OVC016 17/14 A3023 RMK AO2 TSNO
PFCL 202306Z AUTO 13016G24KT 10SM BKN014 OVC032 17/14 A3023 RMK AO2 TSNO
PFCL 202256Z AUTO 14020G25KT 10SM SCT018 OVC032 18/14 A3023 RMK AO2 PK WND 13026/2242 SLP229 T01780144 TSNO
PFCL 202249Z AUTO 13021G26KT 10SM SCT020 OVC034 18/14 A3023 RMK AO2 PK WND 13026/2242 TSNO
PFCL 202156Z AUTO 11014G18KT 10SM BKN020 BKN055 OVC075 17/14 A3024 RMK AO2 SLP233 T01720139 TSNO
PFCL 202109Z AUTO 12015G20KT 10SM SCT025 OVC070 17/13 A3024 RMK AO2 TSNO
PFCL 202056Z AUTO 12014G19KT 10SM BKN022 BKN028 OVC065 18/13 A3024 RMK AO2 SLP231 T01780133 56006 TSNO
PFCL 201856Z AUTO 07010KT 9SM OVC020 15/12 A3025 RMK AO2 SLP235 T01500117 TSNO
PFCL 201756Z AUTO 06011KT 10SM BKN018 OVC029 14/11 A3025 RMK AO2 SLP237 T01390111 10139 20100 51003 TSNO
PFCL 201656Z AUTO 08008KT 10SM OVC020 12/11 A3025 RMK AO2 SLP237 T01220106 TSNO
PFCL 201556Z AUTO 08010KT 10SM BKN020 OVC080 12/10 A3025 RMK AO2 SLP235 T01170100 TSNO
PFCL 201456Z AUTO 06007KT 10SM BKN049 OVC080 12/11 A3024 RMK AO2 SLP234 T01170106 55002 TSNO
PFCL 201356Z AUTO 12007KT 10SM OVC049 12/11 A3024 RMK AO2 SLP233 T01220106 TSNO
PFCL 201056Z AUTO 00000KT 10SM SCT037 OVC055 11/09 A3025 RMK AO2 SLP237 T01060094 TSNO
PFCL 200956Z AUTO 00000KT 10SM OVC043 09/09 A3025 RMK AO2 SLP238 T00940089 TSNO
PFCL 200856Z AUTO 08003KT 10SM BKN041 11/09 A3025 RMK AO2 SLP237 T01060094 401610050 53004 TSNO
PFCL 200756Z AUTO 15005KT 10SM OVC039 10/09 A3025 RMK AO2 SLP235 T01000089 TSNO
PFCL 200656Z AUTO 13004KT 10SM CLR 12/10 A3024 RMK AO2 SLP234 T01170100 TSNO
PFCL 200556Z AUTO 15007KT 10SM CLR 14/10 A3024 RMK AO2 SLP232 T01390100 10161 20139 55000 TSNO
PFCL 200456Z AUTO 15010KT 10SM CLR 15/10 A3023 RMK AO2 SLP230 T01500100 TSNO
PFCL 200356Z AUTO 12008KT 10SM CLR 16/11 A3023 RMK AO2 SLP231 T01610106 TSNO
PFCL 200256Z AUTO 13007KT 10SM FEW025 16/11 A3024 RMK AO2 SLP234 T01610106 57006 TSNO
PFCL 200156Z AUTO 19007KT 10SM OVC025 16/11 A3025 RMK AO2 SLP236 T01560111 TSNO
PFCL 200056Z AUTO 12009KT 10SM OVC025 16/10 A3025 RMK AO2 SLP238 T01560100 TSNO
PFCL 192356Z AUTO 14007KT 10SM OVC021 14/09 A3026 RMK AO2 SLP240 T01440094 10144 20111 58002 TSNO
PFCL 192256Z AUTO 14009KT 10SM OVC019 13/09 A3026 RMK AO2 SLP242 T01330094 TSNO
PFCL 192156Z AUTO 11008KT 10SM OVC017 13/09 A3026 RMK AO2 SLP242 T01280094 TSNO
PFCL 192056Z AUTO 12009KT 10SM OVC017 12/09 A3026 RMK AO2 SLP242 T01220094 53003 TSNO